createdAt,value
2022-09-11T00:00:40.488Z,20.95
2022-09-11T00:03:11.788Z,23.35
2022-09-11T00:05:44.243Z,23.23
2022-09-11T00:08:16.845Z,21.67
2022-09-11T00:10:50.386Z,22.63
2022-09-11T00:13:23.537Z,23.25
2022-09-11T00:15:55.319Z,23.17
2022-09-11T00:18:26.015Z,22.35
2022-09-11T00:20:59.425Z,24.08
2022-09-11T00:23:30.236Z,22.80
2022-09-11T00:26:05.623Z,22.35
2022-09-11T00:28:36.520Z,22.15
2022-09-11T00:31:10.707Z,23.00
2022-09-11T00:33:41.854Z,20.27
2022-09-11T00:36:23.176Z,22.58
2022-09-11T00:38:54.161Z,21.83
2022-09-11T00:41:31.210Z,21.95
2022-09-11T00:44:10.780Z,19.92
2022-09-11T00:46:47.172Z,20.25
2022-09-11T00:49:46.945Z,19.15
2022-09-11T00:52:33.115Z,18.13
2022-09-11T00:55:16.307Z,17.17
2022-09-11T00:57:53.804Z,19.60
2022-09-11T01:00:24.797Z,19.50
2022-09-11T01:02:57.478Z,17.90
2022-09-11T01:05:30.685Z,19.30
2022-09-11T01:08:01.169Z,19.38
2022-09-11T01:11:01.282Z,20.13
2022-09-11T01:13:57.689Z,22.73
2022-09-11T01:16:45.502Z,23.67
2022-09-11T01:19:51.711Z,23.05
2022-09-11T01:22:52.188Z,25.80
2022-09-11T01:25:34.085Z,25.88
2022-09-11T01:28:11.197Z,25.38
2022-09-11T01:30:48.809Z,26.30
2022-09-11T01:33:48.539Z,26.33
2022-09-11T01:36:36.365Z,25.70
2022-09-11T01:39:07.577Z,27.55
2022-09-11T01:42:02.853Z,28.10
2022-09-11T01:44:51.491Z,27.05
2022-09-11T01:47:24.432Z,26.33
2022-09-11T01:50:05.147Z,26.90
2022-09-11T01:52:45.882Z,26.92
2022-09-11T01:55:23.077Z,26.90
2022-09-11T01:58:01.372Z,26.48
2022-09-11T02:00:33.210Z,27.90
2022-09-11T02:03:16.464Z,29.08
2022-09-11T02:05:53.641Z,28.00
2022-09-11T02:08:31.058Z,27.13
2022-09-11T02:11:09.171Z,29.40
2022-09-11T02:13:49.859Z,26.80
2022-09-11T02:16:44.533Z,27.15
2022-09-11T02:19:19.907Z,27.50
2022-09-11T02:21:52.901Z,27.65
2022-09-11T02:24:25.126Z,28.23
2022-09-11T02:27:00.687Z,32.33
2022-09-11T02:29:31.135Z,29.08
2022-09-11T02:32:02.869Z,30.50
2022-09-11T02:34:37.125Z,29.13
2022-09-11T02:37:33.553Z,29.77
2022-09-11T02:40:41.068Z,30.33
2022-09-11T02:43:49.202Z,29.95
2022-09-11T02:46:41.974Z,30.58
2022-09-11T02:49:43.688Z,29.48
2022-09-11T02:52:43.054Z,29.98
2022-09-11T02:55:22.813Z,28.92
2022-09-11T03:00:28.720Z,27.23
2022-09-11T03:02:59.229Z,31.85
2022-09-11T03:05:31.106Z,29.83
2022-09-11T03:08:02.025Z,29.23
2022-09-11T03:10:32.314Z,24.90
2022-09-11T03:13:02.924Z,28.63
2022-09-11T03:15:33.923Z,31.15
2022-09-11T03:18:04.429Z,25.55
2022-09-11T03:20:36.247Z,25.02
2022-09-11T03:23:11.887Z,27.23
2022-09-11T03:25:43.773Z,26.10
2022-09-11T03:28:14.410Z,27.33
2022-09-11T03:30:44.813Z,26.25
2022-09-11T03:33:15.536Z,28.08
2022-09-11T03:35:46.836Z,22.83
2022-09-11T03:38:17.836Z,24.75
2022-09-11T03:40:48.183Z,23.65
2022-09-11T03:43:18.955Z,23.45
2022-09-11T03:45:52.306Z,23.63
2022-09-11T03:48:22.965Z,24.45
2022-09-11T03:50:53.371Z,23.58
2022-09-11T03:53:23.991Z,22.80
2022-09-11T03:55:54.344Z,25.50
2022-09-11T03:58:24.815Z,24.90
2022-09-11T04:00:55.538Z,27.08
2022-09-11T04:03:26.000Z,24.85
2022-09-11T04:06:05.049Z,25.55
2022-09-11T04:08:36.460Z,23.05
2022-09-11T04:11:08.792Z,25.38
2022-09-11T04:13:41.367Z,25.05
2022-09-11T04:16:15.490Z,20.33
2022-09-11T04:18:48.024Z,22.35
2022-09-11T04:21:20.705Z,25.92
2022-09-11T04:23:56.548Z,28.20
2022-09-11T04:26:29.017Z,26.90
2022-09-11T04:29:00.685Z,26.75
2022-09-11T04:31:31.475Z,26.23
2022-09-11T04:34:02.483Z,23.35
2022-09-11T04:36:32.893Z,25.33
2022-09-11T04:39:03.719Z,21.77
2022-09-11T04:41:34.726Z,19.92
2022-09-11T04:44:06.110Z,19.95
2022-09-11T04:46:37.046Z,20.42
2022-09-11T04:49:07.379Z,20.20
2022-09-11T04:51:41.215Z,20.30
2022-09-11T04:54:15.522Z,18.60
2022-09-11T04:56:46.361Z,20.05
2022-09-11T04:59:22.054Z,22.23
2022-09-11T05:01:54.187Z,18.65
2022-09-11T05:04:26.361Z,21.00
2022-09-11T05:07:00.547Z,19.95
2022-09-11T05:09:31.122Z,17.92
2022-09-11T05:12:01.454Z,17.90
2022-09-11T05:14:34.850Z,17.30
2022-09-11T05:17:05.448Z,17.05
2022-09-11T05:19:35.783Z,18.00
2022-09-11T05:22:06.570Z,18.85
2022-09-11T05:24:37.060Z,19.55
2022-09-11T05:27:08.950Z,17.80
2022-09-11T05:29:40.045Z,17.58
2022-09-11T05:32:10.622Z,18.83
2022-09-11T05:34:40.968Z,17.55
2022-09-11T05:37:11.290Z,17.75
2022-09-11T05:39:41.594Z,17.90
2022-09-11T05:42:11.916Z,16.70
2022-09-11T05:44:42.841Z,15.57
2022-09-11T05:47:13.228Z,12.85
2022-09-11T05:49:43.753Z,11.75
2022-09-11T05:52:14.040Z,11.90
2022-09-11T05:54:44.345Z,10.90
2022-09-11T05:57:14.838Z,9.88
2022-09-11T05:59:45.130Z,9.68
2022-09-11T06:02:16.194Z,10.50
2022-09-11T06:04:46.907Z,11.20
2022-09-11T06:07:17.160Z,10.02
2022-09-11T06:09:47.675Z,9.13
2022-09-11T06:12:18.038Z,7.75
2022-09-11T06:14:48.782Z,8.90
2022-09-11T06:17:19.395Z,7.95
2022-09-11T06:19:49.806Z,8.48
2022-09-11T06:22:20.054Z,8.07
2022-09-11T06:24:51.211Z,9.73
2022-09-11T06:27:22.162Z,10.70
2022-09-11T06:29:52.594Z,11.52
2022-09-11T06:32:22.850Z,10.15
2022-09-11T06:34:53.601Z,11.05
2022-09-11T06:37:23.880Z,10.02
2022-09-11T06:39:54.291Z,9.60
2022-09-11T06:42:25.542Z,9.52
2022-09-11T06:44:56.034Z,9.68
2022-09-11T06:47:26.397Z,9.70
2022-09-11T06:49:56.637Z,10.10
2022-09-11T06:52:26.913Z,11.00
2022-09-11T06:54:57.364Z,9.95
2022-09-11T06:57:27.652Z,9.70
2022-09-11T06:59:59.829Z,9.48
2022-09-11T07:02:30.083Z,10.38
2022-09-11T07:05:00.437Z,10.25
2022-09-11T07:07:30.760Z,9.85
2022-09-11T07:10:05.794Z,11.30
2022-09-11T07:12:36.027Z,10.73
2022-09-11T07:15:06.940Z,10.00
2022-09-11T07:17:38.474Z,10.00
2022-09-11T07:20:11.496Z,9.38
2022-09-11T07:22:42.585Z,8.93
2022-09-11T07:25:12.990Z,8.57
2022-09-11T07:27:43.490Z,8.38
2022-09-11T07:30:15.272Z,9.05
2022-09-11T07:32:45.527Z,9.27
2022-09-11T07:35:18.655Z,8.43
2022-09-11T07:37:51.016Z,9.93
2022-09-11T07:40:21.615Z,11.20
2022-09-11T07:42:51.933Z,12.52
2022-09-11T07:45:22.863Z,11.13
2022-09-11T07:47:53.331Z,9.95
2022-09-11T07:50:23.752Z,12.40
2022-09-11T07:52:54.260Z,10.55
2022-09-11T07:55:24.713Z,11.07
2022-09-11T07:57:56.168Z,10.75
2022-09-11T08:00:26.540Z,9.70
2022-09-11T08:02:58.649Z,9.70
2022-09-11T08:05:29.403Z,10.10
2022-09-11T08:08:00.254Z,9.80
2022-09-11T08:10:30.562Z,9.30
2022-09-11T08:13:01.456Z,9.13
2022-09-11T08:15:32.687Z,8.30
2022-09-11T08:18:03.340Z,8.63
2022-09-11T08:20:34.693Z,8.73
2022-09-11T08:23:04.961Z,8.77
2022-09-11T08:25:37.932Z,9.13
2022-09-11T08:28:09.005Z,9.75
2022-09-11T08:30:40.823Z,10.00
2022-09-11T08:33:11.542Z,10.98
2022-09-11T08:35:41.823Z,12.27
2022-09-11T08:38:12.339Z,11.90
2022-09-11T08:40:43.023Z,12.13
2022-09-11T08:43:33.016Z,11.35
2022-09-11T08:46:11.485Z,12.68
2022-09-11T08:49:02.361Z,13.20
2022-09-11T08:51:34.075Z,16.88
2022-09-11T08:54:05.832Z,14.60
2022-09-11T08:56:38.321Z,15.30
2022-09-11T08:59:38.534Z,15.95
2022-09-11T09:02:43.896Z,16.35
2022-09-11T09:05:34.685Z,14.82
2022-09-11T09:08:37.339Z,14.32
2022-09-11T09:11:24.498Z,14.70
2022-09-11T09:14:28.573Z,14.55
2022-09-11T09:17:10.084Z,15.50
2022-09-11T09:20:05.387Z,13.57
2022-09-11T09:22:50.646Z,13.77
2022-09-11T09:25:25.356Z,14.82
2022-09-11T09:28:19.238Z,12.05
2022-09-11T09:30:56.308Z,12.95
2022-09-11T09:33:33.999Z,13.13
2022-09-11T09:36:18.794Z,14.23
2022-09-11T09:38:50.436Z,13.93
2022-09-11T09:41:54.827Z,14.95
2022-09-11T09:44:51.141Z,15.90
2022-09-11T09:47:21.760Z,14.68
2022-09-11T09:49:54.757Z,13.18
2022-09-11T09:52:28.128Z,13.52
2022-09-11T09:55:03.338Z,13.85
2022-09-11T09:57:38.937Z,12.70
2022-09-11T10:00:22.607Z,13.85
2022-09-11T10:02:57.347Z,12.90
2022-09-11T10:05:44.288Z,12.02
2022-09-11T10:08:36.712Z,12.00
2022-09-11T10:11:11.549Z,12.60
2022-09-11T10:13:46.065Z,11.80
2022-09-11T10:16:29.414Z,12.55
2022-09-11T10:19:00.216Z,12.27
2022-09-11T10:21:35.557Z,11.65
2022-09-11T10:24:25.617Z,11.52
2022-09-11T10:26:57.850Z,12.30
2022-09-11T10:29:33.208Z,11.32
2022-09-11T10:32:05.224Z,10.95
2022-09-11T10:34:44.167Z,12.35
2022-09-11T10:37:29.342Z,10.50
2022-09-11T10:40:09.517Z,10.27
2022-09-11T10:42:43.292Z,11.02
2022-09-11T10:45:19.943Z,10.60
2022-09-11T10:47:51.317Z,11.48
2022-09-11T10:50:25.048Z,11.60
2022-09-11T10:53:23.117Z,12.02
2022-09-11T10:56:02.312Z,11.40
2022-09-11T10:58:39.401Z,11.43
2022-09-11T11:01:10.247Z,10.18
2022-09-11T11:03:41.236Z,9.93
2022-09-11T11:06:46.304Z,10.00
2022-09-11T11:09:35.142Z,10.60
2022-09-11T11:12:34.554Z,11.10
2022-09-11T11:15:30.458Z,14.23
2022-09-11T11:18:25.742Z,11.85
2022-09-11T11:21:24.169Z,13.57
2022-09-11T11:24:20.221Z,10.65
2022-09-11T11:27:24.523Z,14.15
2022-09-11T11:30:12.529Z,10.77
2022-09-11T11:33:12.303Z,12.43
2022-09-11T11:36:05.901Z,11.43
2022-09-11T11:39:02.484Z,10.88
2022-09-11T11:41:40.700Z,11.25
2022-09-11T11:44:17.890Z,10.10
2022-09-11T11:46:54.561Z,12.02
2022-09-11T11:50:02.728Z,9.75
2022-09-11T11:52:48.899Z,11.65
2022-09-11T11:55:23.095Z,12.80
2022-09-11T11:58:29.730Z,11.80
2022-09-11T12:01:03.919Z,12.50
2022-09-11T12:03:46.694Z,12.52
2022-09-11T12:06:17.699Z,13.55
2022-09-11T12:08:49.412Z,13.85
2022-09-11T12:11:28.877Z,13.55
2022-09-11T12:14:00.073Z,13.10
2022-09-11T12:16:37.077Z,14.13
2022-09-11T12:19:19.428Z,14.05
2022-09-11T12:22:13.737Z,14.43
2022-09-11T12:25:00.823Z,14.40
2022-09-11T12:27:55.056Z,15.10
2022-09-11T12:30:29.172Z,16.23
2022-09-11T12:33:03.027Z,17.63
2022-09-11T12:35:54.112Z,17.38
2022-09-11T12:38:42.949Z,17.45
2022-09-11T12:41:36.517Z,15.00
2022-09-11T12:44:27.531Z,13.75
2022-09-11T12:47:13.658Z,15.10
2022-09-11T12:49:45.636Z,15.35
2022-09-11T12:52:28.129Z,15.93
2022-09-11T12:55:07.152Z,16.33
2022-09-11T12:57:40.863Z,18.08
2022-09-11T13:00:22.671Z,16.05
2022-09-11T13:03:01.269Z,22.05
2022-09-11T13:05:37.323Z,20.63
2022-09-11T13:08:24.409Z,18.35
2022-09-11T13:10:54.676Z,16.38
2022-09-11T13:13:46.721Z,17.25
2022-09-11T13:16:31.364Z,18.92
2022-09-11T13:19:20.031Z,16.05
2022-09-11T13:21:54.103Z,16.48
2022-09-11T13:24:33.242Z,17.88
2022-09-11T13:27:12.217Z,19.02
2022-09-11T13:29:45.126Z,19.57
2022-09-11T13:32:19.117Z,16.98
2022-09-11T13:34:53.537Z,17.75
2022-09-11T13:37:44.349Z,17.00
2022-09-11T13:40:29.360Z,18.17
2022-09-11T13:43:01.367Z,16.98
2022-09-11T13:45:31.974Z,16.05
2022-09-11T13:48:02.742Z,17.75
2022-09-11T13:50:33.891Z,16.98
2022-09-11T13:53:04.335Z,17.25
2022-09-11T13:55:35.026Z,16.85
2022-09-11T13:58:23.941Z,17.08
2022-09-11T14:00:57.142Z,18.02
2022-09-11T14:03:30.800Z,15.82
2022-09-11T14:06:14.392Z,17.15
2022-09-11T14:08:55.989Z,16.73
2022-09-11T14:11:32.528Z,16.80
2022-09-11T14:14:13.291Z,17.33
2022-09-11T14:16:56.811Z,16.77
2022-09-11T14:19:32.907Z,16.38
2022-09-11T14:22:17.523Z,17.20
2022-09-11T14:25:06.161Z,19.83
2022-09-11T14:27:39.726Z,17.80
2022-09-11T14:30:34.684Z,18.60
2022-09-11T14:33:24.788Z,19.30
2022-09-11T14:36:07.946Z,18.38
2022-09-11T14:38:40.340Z,17.40
2022-09-11T14:41:11.000Z,18.15
2022-09-11T14:43:42.215Z,19.90
2022-09-11T14:46:12.895Z,19.50
2022-09-11T14:48:45.862Z,19.23
2022-09-11T14:51:16.247Z,19.45
2022-09-11T14:53:47.239Z,18.23
2022-09-11T14:56:17.452Z,18.33
2022-09-11T14:58:49.166Z,19.08
2022-09-11T15:01:19.446Z,20.90
2022-09-11T15:03:50.079Z,20.35
2022-09-11T15:06:22.497Z,22.35
2022-09-11T15:08:52.803Z,19.90
2022-09-11T15:11:23.173Z,20.13
2022-09-11T15:14:14.530Z,20.20
2022-09-11T15:16:45.307Z,19.95
2022-09-11T15:19:17.550Z,20.48
2022-09-11T15:21:47.837Z,18.00
2022-09-11T15:24:19.200Z,19.40
2022-09-11T15:26:49.568Z,21.73
2022-09-11T15:29:19.827Z,21.15
2022-09-11T15:31:50.987Z,20.60
2022-09-11T15:34:21.818Z,16.73
2022-09-11T15:36:53.176Z,16.35
2022-09-11T15:39:26.459Z,18.65
2022-09-11T15:41:58.472Z,17.83
2022-09-11T15:44:31.431Z,16.35
2022-09-11T15:47:01.846Z,18.42
2022-09-11T15:49:33.761Z,19.65
2022-09-11T15:52:04.917Z,16.65
2022-09-11T15:54:35.285Z,17.88
2022-09-11T15:57:05.551Z,17.48
2022-09-11T15:59:36.681Z,17.90
2022-09-11T16:02:07.046Z,16.30
2022-09-11T16:04:37.705Z,18.25
2022-09-11T16:07:08.008Z,17.98
2022-09-11T16:09:38.840Z,18.88
2022-09-11T16:12:09.460Z,20.95
2022-09-11T16:14:40.708Z,20.00
2022-09-11T16:17:18.770Z,19.45
2022-09-11T16:19:49.696Z,19.55
2022-09-11T16:22:19.934Z,19.95
2022-09-11T16:24:50.521Z,19.50
2022-09-11T16:27:21.403Z,19.23
2022-09-11T16:30:25.963Z,19.23
2022-09-11T16:32:43.240Z,20.35
2022-09-11T16:35:15.933Z,21.80
2022-09-11T16:37:46.262Z,19.27
2022-09-11T16:40:17.177Z,18.00
2022-09-11T16:42:47.463Z,19.98
2022-09-11T16:45:17.807Z,19.60
2022-09-11T16:47:48.392Z,19.90
2022-09-11T16:50:19.542Z,18.92
2022-09-11T16:52:49.786Z,19.75
2022-09-11T16:55:22.233Z,19.33
2022-09-11T16:57:56.205Z,21.58
2022-09-11T17:00:26.682Z,20.75
2022-09-11T17:02:56.955Z,19.52
2022-09-11T17:05:27.587Z,21.50
2022-09-11T17:07:57.849Z,21.58
2022-09-11T17:10:28.148Z,21.73
2022-09-11T17:12:58.789Z,19.45
2022-09-11T17:15:30.549Z,18.83
2022-09-11T17:18:00.796Z,20.58
2022-09-11T17:20:31.676Z,19.98
2022-09-11T17:23:02.026Z,20.27
2022-09-11T17:25:33.316Z,20.55
2022-09-11T17:28:03.620Z,19.95
2022-09-11T17:30:34.454Z,16.80
2022-09-11T17:33:05.125Z,18.23
2022-09-11T17:35:35.602Z,18.30
2022-09-11T17:38:06.096Z,18.08
2022-09-11T17:40:36.579Z,17.55
2022-09-11T17:43:07.103Z,19.38
2022-09-11T17:45:37.529Z,19.92
2022-09-11T17:48:07.794Z,18.40
2022-09-11T17:50:38.322Z,18.83
2022-09-11T17:53:08.519Z,18.60
2022-09-11T17:55:39.281Z,18.00
2022-09-11T17:58:09.541Z,18.92
2022-09-11T18:00:40.135Z,21.98
2022-09-11T18:03:10.442Z,28.13
2022-09-11T18:05:45.897Z,30.80
2022-09-11T18:08:16.414Z,33.83
2022-09-11T18:10:55.269Z,55.72
2022-09-11T18:13:25.519Z,64.70
2022-09-11T18:15:58.104Z,67.90
2022-09-11T18:18:29.523Z,65.40
2022-09-11T18:21:06.555Z,61.35
2022-09-11T18:23:41.249Z,63.53
2022-09-11T18:26:12.978Z,61.22
2022-09-11T18:28:43.207Z,62.80
2022-09-11T18:31:13.715Z,59.88
2022-09-11T18:33:44.191Z,65.13
2022-09-11T18:36:16.077Z,60.67
2022-09-11T18:38:46.432Z,62.97
2022-09-11T18:41:16.699Z,63.78
2022-09-11T18:43:50.499Z,65.22
2022-09-11T18:46:21.183Z,66.95
2022-09-11T18:48:52.455Z,64.18
2022-09-11T18:51:23.190Z,63.25
2022-09-11T18:53:54.211Z,59.88
2022-09-11T18:56:29.350Z,56.53
2022-09-11T18:59:01.499Z,57.83
2022-09-11T19:01:34.635Z,56.13
2022-09-11T19:04:10.236Z,56.25
2022-09-11T19:06:41.717Z,41.28
2022-09-11T19:09:14.755Z,38.72
2022-09-11T19:11:45.501Z,39.60
2022-09-11T19:14:17.015Z,36.95
2022-09-11T19:16:47.885Z,36.28
2022-09-11T19:19:18.358Z,32.45
2022-09-11T19:21:48.995Z,31.50
2022-09-11T19:24:19.259Z,31.58
2022-09-11T19:26:49.717Z,30.73
2022-09-11T19:29:22.236Z,28.83
2022-09-11T19:31:52.524Z,26.58
2022-09-11T19:34:24.152Z,27.45
2022-09-11T19:36:54.601Z,28.00
2022-09-11T19:39:24.947Z,22.92
2022-09-11T19:41:55.370Z,20.73
2022-09-11T19:44:27.240Z,21.25
2022-09-11T19:46:59.562Z,20.30
2022-09-11T19:49:31.161Z,20.52
2022-09-11T19:52:01.933Z,20.35
2022-09-11T19:54:32.861Z,20.10
2022-09-11T19:57:04.471Z,20.58
2022-09-11T19:59:35.123Z,19.65
2022-09-11T20:02:05.655Z,18.77
2022-09-11T20:04:36.041Z,18.25
2022-09-11T20:07:07.573Z,17.70
2022-09-11T20:09:37.916Z,17.77
2022-09-11T20:12:08.319Z,16.92
2022-09-11T20:14:42.419Z,17.17
2022-09-11T20:17:13.190Z,20.52
2022-09-11T20:19:46.744Z,21.63
2022-09-11T20:22:17.108Z,22.42
2022-09-11T20:24:47.385Z,24.45
2022-09-11T20:27:17.882Z,25.63
2022-09-11T20:29:48.159Z,28.23
2022-09-11T20:32:20.239Z,24.27
2022-09-11T20:34:50.560Z,24.58
2022-09-11T20:37:20.880Z,24.58
2022-09-11T20:39:51.187Z,24.35
2022-09-11T20:42:21.640Z,23.92
2022-09-11T20:44:51.997Z,23.95
2022-09-11T20:47:22.304Z,23.20
2022-09-11T20:49:52.722Z,24.40
2022-09-11T20:52:23.086Z,24.35
2022-09-11T20:54:53.855Z,24.42
2022-09-11T20:57:24.192Z,24.33
2022-09-11T20:59:54.492Z,23.08
2022-09-11T21:02:24.888Z,23.00
2022-09-11T21:04:55.175Z,24.23
2022-09-11T21:07:25.481Z,24.63
2022-09-11T21:09:55.774Z,25.00
2022-09-11T21:12:26.823Z,24.77
2022-09-11T21:14:57.550Z,24.30
2022-09-11T21:17:27.938Z,24.58
2022-09-11T21:19:58.206Z,22.25
2022-09-11T21:22:28.584Z,24.02
2022-09-11T21:24:58.961Z,22.00
2022-09-11T21:27:29.335Z,25.13
2022-09-11T21:29:59.594Z,24.42
2022-09-11T21:32:29.924Z,26.33
2022-09-11T21:35:00.216Z,24.73
2022-09-11T21:37:30.527Z,24.90
2022-09-11T21:40:00.884Z,23.90
2022-09-11T21:42:31.239Z,22.05
2022-09-11T21:45:01.614Z,24.27
2022-09-11T21:47:32.401Z,21.98
2022-09-11T21:50:02.701Z,20.48
2022-09-11T21:52:33.126Z,21.45
2022-09-11T21:55:03.406Z,17.90
2022-09-11T21:57:33.825Z,17.67
2022-09-11T22:00:04.233Z,19.30
2022-09-11T22:02:34.599Z,18.90
2022-09-11T22:05:06.256Z,18.92
2022-09-11T22:07:36.865Z,19.77
2022-09-11T22:10:09.456Z,17.33
2022-09-11T22:12:40.094Z,17.48
2022-09-11T22:15:11.874Z,17.25
2022-09-11T22:17:42.623Z,17.55
2022-09-11T22:20:12.997Z,18.25
2022-09-11T22:22:43.677Z,20.60
2022-09-11T22:25:14.013Z,19.67
2022-09-11T22:27:48.687Z,20.40
2022-09-11T22:30:18.982Z,20.65
2022-09-11T22:32:49.409Z,20.15
2022-09-11T22:35:20.520Z,19.73
2022-09-11T22:37:51.167Z,19.30
2022-09-11T22:40:21.841Z,20.20
2022-09-11T22:42:52.273Z,18.98
2022-09-11T22:45:23.127Z,18.35
2022-09-11T22:47:53.473Z,19.67
2022-09-11T22:50:23.799Z,18.65
2022-09-11T22:52:54.196Z,20.88
2022-09-11T22:55:24.512Z,17.98
2022-09-11T22:57:54.881Z,18.98
2022-09-11T23:00:25.223Z,18.75
2022-09-11T23:02:55.633Z,20.95
2022-09-11T23:05:38.639Z,20.95
2022-09-11T23:08:08.924Z,19.27
2022-09-11T23:10:47.091Z,21.05
2022-09-11T23:13:18.033Z,20.92
2022-09-11T23:15:48.779Z,21.23
2022-09-11T23:18:19.455Z,21.00
2022-09-11T23:20:54.008Z,20.75
2022-09-11T23:23:24.780Z,20.38
2022-09-11T23:25:55.383Z,21.10
2022-09-11T23:28:25.870Z,30.83
2022-09-11T23:30:56.541Z,24.73
2022-09-11T23:33:27.676Z,23.85
2022-09-11T23:35:58.155Z,20.45
2022-09-11T23:38:28.688Z,20.95
2022-09-11T23:40:58.993Z,20.55
2022-09-11T23:43:29.397Z,19.05
2022-09-11T23:45:59.764Z,19.38
2022-09-11T23:48:30.203Z,19.67
2022-09-11T23:51:00.499Z,20.67
2022-09-11T23:53:31.868Z,20.23
2022-09-11T23:56:02.411Z,21.05
2022-09-11T23:58:35.606Z,20.10
